Flugmeteorologie

METAR


Letzte Änderung: 24 Nov 2020 17:50:00
403
SAHU41 HASM 241800
METAR LHSM 241745Z AUTO 12004KT 070V160 1100 BR VV002 01/01 Q1030

TAF


Letzte Änderung: 24 Nov 2020 17:05:00
398
FCHU99 LHSM 241700
TAF LHSM 241700Z NIL